createdAt,value
2019-05-09T00:02:25.100Z,67.38
2019-05-09T00:04:55.978Z,67.54
2019-05-09T00:07:26.569Z,67.86
2019-05-09T00:09:57.133Z,68.05
2019-05-09T00:12:27.602Z,68.19
2019-05-09T00:14:58.258Z,67.71
2019-05-09T00:17:28.740Z,67.84
2019-05-09T00:20:03.509Z,67.64
2019-05-09T00:22:34.589Z,67.57
2019-05-09T00:25:05.183Z,67.42
2019-05-09T00:27:36.851Z,67.90
2019-05-09T00:30:07.583Z,67.96
2019-05-09T00:32:40.113Z,68.43
2019-05-09T00:35:29.912Z,68.58
2019-05-09T00:38:10.266Z,68.28
2019-05-09T00:40:54.620Z,68.57
2019-05-09T00:43:13.285Z,69.14
2019-05-09T00:46:04.158Z,69.16
2019-05-09T00:49:09.255Z,69.04
2019-05-09T00:51:39.485Z,69.47
2019-05-09T00:54:10.064Z,69.41
2019-05-09T00:56:40.737Z,69.33
2019-05-09T00:59:13.337Z,69.49
2019-05-09T01:01:43.719Z,69.13
2019-05-09T01:04:14.376Z,68.98
2019-05-09T01:06:44.954Z,69.04
2019-05-09T01:09:15.574Z,68.98
2019-05-09T01:11:46.202Z,69.54
2019-05-09T01:14:16.716Z,70.38
2019-05-09T01:16:47.278Z,71.25
2019-05-09T01:19:17.688Z,71.94
2019-05-09T01:21:48.036Z,71.94
2019-05-09T01:24:18.548Z,72.06
2019-05-09T01:26:49.019Z,72.93
2019-05-09T01:29:19.285Z,73.09
2019-05-09T01:31:49.634Z,73.39
2019-05-09T01:34:24.035Z,73.08
2019-05-09T01:37:25.440Z,72.93
2019-05-09T01:39:55.892Z,72.80
2019-05-09T01:42:26.335Z,72.78
2019-05-09T01:44:57.881Z,72.87
2019-05-09T01:47:28.506Z,72.92
2019-05-09T01:49:59.117Z,72.80
2019-05-09T01:52:29.776Z,72.09
2019-05-09T01:55:00.199Z,71.95
2019-05-09T01:57:30.756Z,71.49
2019-05-09T02:00:04.122Z,71.34
2019-05-09T02:02:34.895Z,70.90
2019-05-09T02:05:06.626Z,70.36
2019-05-09T02:07:37.174Z,70.60
2019-05-09T02:10:08.140Z,71.39
2019-05-09T02:12:38.804Z,72.27
2019-05-09T02:15:26.712Z,71.99
2019-05-09T02:18:07.492Z,71.57
2019-05-09T02:20:38.099Z,70.85
2019-05-09T02:23:08.709Z,70.84
2019-05-09T02:25:39.494Z,70.31
2019-05-09T02:28:09.863Z,69.95
2019-05-09T02:30:40.488Z,69.87
2019-05-09T02:33:14.435Z,69.85
2019-05-09T02:35:56.387Z,69.38
2019-05-09T02:38:19.959Z,69.64
2019-05-09T02:40:50.743Z,70.07
2019-05-09T02:43:21.302Z,70.08
2019-05-09T02:46:04.293Z,69.86
2019-05-09T02:48:34.865Z,70.17
2019-05-09T02:51:08.963Z,69.98
2019-05-09T02:53:39.434Z,69.74
2019-05-09T02:56:09.826Z,69.63
2019-05-09T02:58:52.425Z,69.83
2019-05-09T03:01:33.538Z,69.98
2019-05-09T03:04:04.276Z,69.90
2019-05-09T03:06:34.862Z,69.62
2019-05-09T03:09:08.897Z,69.38
2019-05-09T03:11:40.058Z,69.68
2019-05-09T03:14:10.525Z,69.35
2019-05-09T03:16:40.911Z,69.94
2019-05-09T03:19:11.414Z,69.64
2019-05-09T03:21:49.349Z,69.43
2019-05-09T03:24:19.742Z,68.52
2019-05-09T03:26:54.807Z,68.49
2019-05-09T03:29:35.300Z,68.50
2019-05-09T03:32:08.927Z,68.20
2019-05-09T03:34:37.936Z,68.55
2019-05-09T03:37:08.910Z,68.11
2019-05-09T03:39:39.378Z,68.24
2019-05-09T03:42:09.773Z,68.93
2019-05-09T03:44:40.065Z,68.86
2019-05-09T03:47:22.120Z,68.71
2019-05-09T03:50:09.964Z,69.05
2019-05-09T03:52:40.339Z,69.38
2019-05-09T03:55:12.940Z,69.38
2019-05-09T03:57:48.335Z,69.53
2019-05-09T04:00:19.186Z,69.32
2019-05-09T04:02:49.487Z,69.38
2019-05-09T04:05:19.950Z,69.51
2019-05-09T04:07:50.512Z,69.45
2019-05-09T04:10:21.112Z,69.33
2019-05-09T04:12:55.915Z,68.88
2019-05-09T04:15:24.322Z,68.81
2019-05-09T04:17:54.696Z,69.06
2019-05-09T04:20:25.151Z,69.44
2019-05-09T04:22:59.259Z,68.92
2019-05-09T04:25:31.654Z,68.78
2019-05-09T04:28:03.000Z,68.18
2019-05-09T04:30:33.427Z,67.85
2019-05-09T04:33:04.187Z,67.84
2019-05-09T04:35:34.364Z,68.25
2019-05-09T04:38:07.251Z,67.29
2019-05-09T04:40:44.620Z,66.78
2019-05-09T04:43:15.555Z,66.82
2019-05-09T04:45:48.105Z,66.65
2019-05-09T04:48:37.708Z,66.57
2019-05-09T04:51:08.249Z,66.60
2019-05-09T04:53:39.958Z,66.19
2019-05-09T04:56:24.211Z,66.16
2019-05-09T04:58:54.856Z,65.69
2019-05-09T05:01:38.783Z,65.13
2019-05-09T05:04:08.663Z,64.23
2019-05-09T05:06:40.552Z,62.60
2019-05-09T05:09:11.327Z,62.30
2019-05-09T05:11:41.789Z,61.77
2019-05-09T05:14:22.423Z,61.15
2019-05-09T05:16:55.211Z,61.23
2019-05-09T05:19:30.954Z,60.78
2019-05-09T05:22:03.610Z,59.98
2019-05-09T05:25:01.328Z,61.20
2019-05-09T05:27:32.186Z,60.46
2019-05-09T05:30:02.977Z,59.14
2019-05-09T05:32:41.972Z,58.34
2019-05-09T05:35:29.805Z,58.11
2019-05-09T05:38:00.189Z,57.07
2019-05-09T05:40:33.485Z,55.20
2019-05-09T05:43:02.818Z,53.86
2019-05-09T05:45:37.494Z,54.39
2019-05-09T05:48:20.867Z,53.74
2019-05-09T05:50:51.419Z,53.19
2019-05-09T05:53:21.925Z,53.55
2019-05-09T05:55:52.868Z,54.03
2019-05-09T05:58:23.666Z,54.31
2019-05-09T06:00:54.299Z,53.80
2019-05-09T06:03:25.002Z,53.66
2019-05-09T06:05:58.218Z,53.62
2019-05-09T06:08:27.726Z,53.79
2019-05-09T06:10:59.547Z,54.05
2019-05-09T06:13:30.421Z,53.44
2019-05-09T06:16:01.328Z,54.90
2019-05-09T06:18:31.719Z,54.78
2019-05-09T06:21:02.309Z,55.27
2019-05-09T06:23:32.778Z,54.73
2019-05-09T06:26:03.690Z,55.17
2019-05-09T06:28:34.229Z,55.02
2019-05-09T06:31:04.859Z,55.78
2019-05-09T06:33:35.460Z,55.97
2019-05-09T06:36:07.974Z,54.03
2019-05-09T06:38:38.150Z,54.54
2019-05-09T06:41:11.959Z,54.03
2019-05-09T06:43:41.614Z,53.80
2019-05-09T06:46:29.683Z,53.16
2019-05-09T06:49:20.202Z,52.90
2019-05-09T06:51:33.130Z,53.66
2019-05-09T06:54:04.873Z,53.38
2019-05-09T06:56:35.339Z,53.46
2019-05-09T06:59:07.651Z,53.39
2019-05-09T07:01:58.971Z,53.15
2019-05-09T07:04:50.887Z,53.33
2019-05-09T07:07:39.089Z,53.48
2019-05-09T07:10:09.299Z,52.80
2019-05-09T07:12:40.192Z,53.04
2019-05-09T07:15:10.856Z,52.52
2019-05-09T07:17:41.800Z,52.72
2019-05-09T07:20:12.309Z,53.30
2019-05-09T07:22:48.103Z,51.93
2019-05-09T07:25:29.237Z,51.54
2019-05-09T07:28:00.964Z,52.14
2019-05-09T07:30:40.885Z,52.17
2019-05-09T07:33:18.803Z,51.86
2019-05-09T07:35:49.845Z,52.15
2019-05-09T07:38:30.992Z,52.80
2019-05-09T07:41:01.991Z,52.57
2019-05-09T07:43:32.347Z,53.14
2019-05-09T07:46:08.950Z,52.52
2019-05-09T07:48:39.599Z,51.87
2019-05-09T07:51:11.628Z,51.35
2019-05-09T07:53:42.081Z,51.49
2019-05-09T07:56:12.748Z,51.48
2019-05-09T07:58:43.346Z,51.31
2019-05-09T08:01:13.914Z,52.37
2019-05-09T08:03:44.429Z,50.99
2019-05-09T08:06:15.120Z,51.36
2019-05-09T08:08:47.664Z,51.77
2019-05-09T08:11:18.138Z,52.38
2019-05-09T08:13:48.801Z,51.12
2019-05-09T08:16:19.421Z,50.61
2019-05-09T08:18:49.835Z,50.82
2019-05-09T08:21:20.503Z,50.67
2019-05-09T08:23:50.951Z,51.37
2019-05-09T08:26:21.633Z,50.10
2019-05-09T08:28:52.104Z,50.79
2019-05-09T08:31:22.586Z,50.52
2019-05-09T08:33:53.205Z,50.62
2019-05-09T08:36:23.904Z,50.34
2019-05-09T08:38:54.754Z,50.43
2019-05-09T08:41:25.245Z,50.39
2019-05-09T08:43:57.549Z,50.07
2019-05-09T08:46:28.657Z,49.67
2019-05-09T08:48:59.214Z,48.94
2019-05-09T08:52:04.798Z,49.08
2019-05-09T08:54:32.213Z,49.09
2019-05-09T08:57:02.799Z,48.71
2019-05-09T08:59:34.579Z,48.61
2019-05-09T09:02:15.058Z,48.66
2019-05-09T09:04:38.382Z,47.91
2019-05-09T09:07:10.582Z,48.42
2019-05-09T09:09:41.150Z,49.08
2019-05-09T09:12:25.823Z,48.59
2019-05-09T09:14:43.805Z,49.47
2019-05-09T09:17:14.585Z,47.76
2019-05-09T09:19:47.643Z,46.88
2019-05-09T09:22:18.128Z,46.72
2019-05-09T09:24:48.701Z,46.67
2019-05-09T09:27:19.326Z,46.36
2019-05-09T09:29:49.803Z,45.75
2019-05-09T09:32:20.295Z,45.19
2019-05-09T09:34:50.971Z,46.38
2019-05-09T09:37:21.405Z,45.07
2019-05-09T09:39:51.944Z,44.96
2019-05-09T09:42:22.728Z,45.67
2019-05-09T09:44:53.410Z,45.24
2019-05-09T09:47:23.950Z,46.08
2019-05-09T09:49:55.167Z,44.88
2019-05-09T09:52:25.741Z,45.31
2019-05-09T09:54:58.190Z,45.02
2019-05-09T09:57:28.999Z,45.56
2019-05-09T10:00:18.052Z,46.16
2019-05-09T10:02:48.910Z,44.63
2019-05-09T10:05:19.621Z,45.64
2019-05-09T10:07:50.282Z,45.53
2019-05-09T10:10:33.981Z,45.33
2019-05-09T10:13:04.649Z,46.45
2019-05-09T10:15:54.471Z,45.48
2019-05-09T10:18:38.271Z,44.09
2019-05-09T10:21:15.028Z,42.28
2019-05-09T10:23:45.326Z,42.75
2019-05-09T10:26:17.776Z,41.25
2019-05-09T10:28:48.558Z,41.34
2019-05-09T10:31:19.322Z,42.18
2019-05-09T10:33:49.560Z,40.49
2019-05-09T10:36:20.008Z,40.07
2019-05-09T10:38:50.622Z,38.99
2019-05-09T10:41:21.449Z,40.40
2019-05-09T10:44:09.529Z,40.09
2019-05-09T10:47:02.152Z,39.19
2019-05-09T10:49:31.359Z,38.75
2019-05-09T10:52:01.995Z,38.51
2019-05-09T10:54:32.509Z,39.09
2019-05-09T10:57:03.086Z,40.42
2019-05-09T10:59:33.754Z,40.41
2019-05-09T11:02:04.837Z,41.11
2019-05-09T11:04:37.961Z,41.62
2019-05-09T11:07:08.196Z,42.47
2019-05-09T11:09:39.129Z,41.33
2019-05-09T11:12:09.850Z,42.72
2019-05-09T11:14:40.372Z,42.74
2019-05-09T11:17:18.135Z,42.88
2019-05-09T11:19:42.866Z,43.37
2019-05-09T11:22:13.497Z,44.12
2019-05-09T11:24:48.185Z,43.30
2019-05-09T11:27:18.433Z,44.31
2019-05-09T11:29:49.821Z,45.89
2019-05-09T11:32:27.737Z,46.73
2019-05-09T11:34:58.724Z,46.63
2019-05-09T11:37:29.098Z,48.38
2019-05-09T11:39:59.675Z,49.85
2019-05-09T11:42:33.251Z,51.32
2019-05-09T11:45:02.434Z,50.75
2019-05-09T11:47:39.770Z,50.43
2019-05-09T11:50:08.785Z,52.09
2019-05-09T11:52:38.845Z,47.73
2019-05-09T11:55:27.449Z,47.59
2019-05-09T11:57:42.724Z,49.69
2019-05-09T12:00:13.376Z,48.12
2019-05-09T12:02:43.848Z,49.36
2019-05-09T12:05:14.642Z,47.31
2019-05-09T12:07:45.284Z,48.85
2019-05-09T12:10:15.795Z,50.36
2019-05-09T12:12:47.819Z,49.95
2019-05-09T12:15:18.718Z,51.42
2019-05-09T12:17:57.374Z,54.45
2019-05-09T12:20:21.426Z,54.65
2019-05-09T12:22:52.100Z,55.19
2019-05-09T12:25:28.079Z,53.67
2019-05-09T12:27:58.391Z,54.39
2019-05-09T12:30:29.399Z,55.18
2019-05-09T12:32:59.866Z,53.18
2019-05-09T12:35:30.333Z,54.93
2019-05-09T12:38:00.969Z,53.32
2019-05-09T12:40:31.573Z,53.91
2019-05-09T12:43:01.963Z,54.64
2019-05-09T12:45:33.302Z,54.48
2019-05-09T12:48:10.501Z,55.48
2019-05-09T12:50:35.852Z,55.56
2019-05-09T12:53:06.150Z,51.83
2019-05-09T12:55:38.448Z,53.44
2019-05-09T12:58:11.930Z,54.75
2019-05-09T13:00:42.454Z,52.30
2019-05-09T13:03:13.049Z,53.18
2019-05-09T13:05:46.924Z,52.06
2019-05-09T13:08:17.746Z,53.06
2019-05-09T13:10:48.818Z,52.87
2019-05-09T13:13:19.781Z,52.77
2019-05-09T13:16:05.085Z,52.35
2019-05-09T13:19:03.430Z,52.01
2019-05-09T13:21:34.083Z,50.56
2019-05-09T13:24:04.785Z,49.71
2019-05-09T13:26:38.262Z,50.77
2019-05-09T13:29:08.309Z,50.04
2019-05-09T13:31:39.526Z,50.27
2019-05-09T13:34:10.262Z,49.44
2019-05-09T13:36:40.833Z,49.67
2019-05-09T13:39:11.617Z,49.28
2019-05-09T13:41:42.419Z,49.60
2019-05-09T13:44:14.036Z,50.18
2019-05-09T13:46:44.403Z,49.58
2019-05-09T13:49:15.751Z,50.74
2019-05-09T13:51:54.746Z,51.40
2019-05-09T13:54:18.776Z,52.41
2019-05-09T13:56:56.589Z,51.91
2019-05-09T13:59:21.796Z,51.71
2019-05-09T14:01:52.644Z,51.53
2019-05-09T14:04:23.237Z,52.54
2019-05-09T14:06:53.641Z,53.36
2019-05-09T14:09:23.982Z,53.43
2019-05-09T14:11:54.326Z,55.45
2019-05-09T14:14:28.142Z,53.85
2019-05-09T14:16:59.260Z,56.22
2019-05-09T14:19:40.387Z,56.25
2019-05-09T14:22:02.752Z,57.08
2019-05-09T14:24:33.569Z,55.04
2019-05-09T14:27:04.334Z,54.71
2019-05-09T14:29:34.776Z,54.26
2019-05-09T14:32:05.809Z,53.62
2019-05-09T14:34:38.191Z,55.32
2019-05-09T14:37:09.525Z,55.88
2019-05-09T14:39:54.923Z,57.68
2019-05-09T14:42:12.504Z,58.05
2019-05-09T14:44:44.179Z,59.69
2019-05-09T14:47:27.700Z,60.33
2019-05-09T14:49:59.385Z,60.59
2019-05-09T14:52:29.618Z,60.72
2019-05-09T14:55:00.425Z,62.19
2019-05-09T14:57:30.900Z,64.01
2019-05-09T15:00:01.445Z,63.64
2019-05-09T15:02:32.169Z,63.63
2019-05-09T15:05:03.603Z,65.24
2019-05-09T15:07:34.490Z,66.62
2019-05-09T15:10:05.427Z,66.81
2019-05-09T15:12:38.786Z,68.03
2019-05-09T15:15:08.209Z,68.84
2019-05-09T15:17:38.655Z,68.76
2019-05-09T15:20:09.114Z,68.90
2019-05-09T15:22:39.904Z,67.67
2019-05-09T15:25:10.636Z,69.09
2019-05-09T15:27:44.153Z,69.99
2019-05-09T15:30:15.118Z,69.47
2019-05-09T15:32:47.402Z,71.98
2019-05-09T15:35:18.368Z,71.42
2019-05-09T15:37:49.064Z,71.06
2019-05-09T15:40:19.730Z,71.47
2019-05-09T15:42:50.266Z,72.23
2019-05-09T15:45:21.001Z,71.54
2019-05-09T15:47:52.856Z,72.22
2019-05-09T15:50:23.604Z,72.51
2019-05-09T15:52:54.081Z,73.04
2019-05-09T15:55:24.768Z,74.51
2019-05-09T15:57:57.593Z,74.78
2019-05-09T16:00:28.499Z,74.85
2019-05-09T16:02:59.246Z,74.32
2019-05-09T16:05:31.853Z,73.69
2019-05-09T16:08:01.892Z,73.81
2019-05-09T16:10:32.675Z,74.06
2019-05-09T16:13:03.374Z,73.92
2019-05-09T16:15:34.112Z,73.73
2019-05-09T16:18:04.910Z,73.68
2019-05-09T16:20:38.412Z,74.61
2019-05-09T16:23:08.394Z,74.98
2019-05-09T16:25:38.952Z,75.32
2019-05-09T16:28:09.370Z,74.50
2019-05-09T16:30:40.138Z,75.49
2019-05-09T16:33:10.422Z,75.80
2019-05-09T16:35:41.137Z,74.83
2019-05-09T16:38:11.695Z,76.06
2019-05-09T16:40:42.293Z,76.08
2019-05-09T16:43:12.955Z,75.46
2019-05-09T16:45:43.481Z,75.78
2019-05-09T16:48:14.057Z,76.23
2019-05-09T16:50:57.706Z,76.77
2019-05-09T16:53:18.640Z,77.25
2019-05-09T16:55:49.403Z,76.77
2019-05-09T16:58:19.800Z,75.87
2019-05-09T17:00:52.190Z,76.43
2019-05-09T17:03:22.628Z,76.42
2019-05-09T17:05:53.166Z,76.57
2019-05-09T17:08:23.673Z,76.66
2019-05-09T17:10:54.955Z,76.92
2019-05-09T17:13:25.354Z,76.96
2019-05-09T17:15:56.039Z,76.74
2019-05-09T17:18:28.301Z,77.50
2019-05-09T17:21:24.126Z,77.85
2019-05-09T17:23:53.615Z,77.51
2019-05-09T17:26:24.199Z,77.31
2019-05-09T17:28:54.811Z,77.28
2019-05-09T17:31:27.408Z,76.65
2019-05-09T17:33:58.025Z,76.85
2019-05-09T17:36:29.835Z,76.71
2019-05-09T17:39:00.520Z,76.16
2019-05-09T17:41:31.155Z,76.82
2019-05-09T17:44:01.741Z,77.23
2019-05-09T17:46:32.292Z,76.99
2019-05-09T17:49:02.686Z,76.83
2019-05-09T17:51:36.365Z,77.45
2019-05-09T17:54:08.300Z,77.31
2019-05-09T17:56:39.896Z,77.62
2019-05-09T17:59:10.304Z,77.89
2019-05-09T18:01:40.906Z,77.97
2019-05-09T18:04:11.440Z,77.66
2019-05-09T18:06:41.994Z,77.52
2019-05-09T18:09:12.327Z,77.40
2019-05-09T18:11:42.816Z,78.06
2019-05-09T18:14:13.360Z,78.46
2019-05-09T18:16:43.965Z,78.82
2019-05-09T18:19:17.268Z,79.36
2019-05-09T18:21:51.228Z,80.61
2019-05-09T18:24:21.267Z,81.11
2019-05-09T18:26:51.676Z,80.86
2019-05-09T18:29:22.339Z,80.70
2019-05-09T18:32:11.716Z,80.53
2019-05-09T18:34:42.274Z,80.91
2019-05-09T18:37:13.025Z,80.98
2019-05-09T18:39:43.128Z,80.69
2019-05-09T18:42:13.753Z,80.98
2019-05-09T18:44:44.386Z,80.98
2019-05-09T18:47:14.645Z,81.48
2019-05-09T18:49:45.291Z,81.30
2019-05-09T18:52:15.899Z,81.18
2019-05-09T18:54:46.638Z,80.76
2019-05-09T18:57:29.424Z,80.49
2019-05-09T19:00:00.313Z,79.99
2019-05-09T19:02:30.783Z,80.47
2019-05-09T19:05:01.495Z,79.35
2019-05-09T19:07:33.089Z,79.93
2019-05-09T19:10:03.779Z,79.11
2019-05-09T19:12:34.132Z,79.23
2019-05-09T19:15:05.912Z,79.53
2019-05-09T19:18:15.300Z,79.37
2019-05-09T19:21:08.675Z,80.56
2019-05-09T19:23:39.197Z,80.92
2019-05-09T19:26:28.458Z,81.13
2019-05-09T19:28:58.997Z,81.88
2019-05-09T19:31:29.249Z,81.84
2019-05-09T19:33:59.733Z,82.01
2019-05-09T19:36:30.341Z,82.08
2019-05-09T19:39:00.787Z,82.46
2019-05-09T19:41:32.658Z,82.54
2019-05-09T19:44:12.908Z,82.31
2019-05-09T19:46:43.152Z,82.97
2019-05-09T19:49:13.708Z,82.73
2019-05-09T19:51:44.182Z,82.52
2019-05-09T19:54:14.424Z,82.80
2019-05-09T19:56:47.707Z,83.52
2019-05-09T19:59:18.166Z,83.35
2019-05-09T20:01:48.606Z,83.51
2019-05-09T20:04:19.261Z,83.60
2019-05-09T20:06:49.857Z,84.08
2019-05-09T20:09:26.344Z,83.91
2019-05-09T20:12:07.967Z,83.79
2019-05-09T20:14:41.366Z,83.58
2019-05-09T20:17:11.796Z,83.38
2019-05-09T20:19:42.476Z,83.78
2019-05-09T20:22:12.929Z,83.74
2019-05-09T20:24:43.337Z,83.48
2019-05-09T20:27:13.868Z,83.15
2019-05-09T20:29:44.380Z,83.28
2019-05-09T20:32:14.929Z,83.43
2019-05-09T20:34:46.552Z,83.42
2019-05-09T20:37:16.810Z,83.57
2019-05-09T20:39:47.403Z,83.35
2019-05-09T20:42:17.942Z,83.26
2019-05-09T20:44:48.664Z,82.95
2019-05-09T20:47:19.254Z,82.63
2019-05-09T20:49:49.988Z,82.90
2019-05-09T20:52:21.874Z,82.85
2019-05-09T20:54:52.630Z,82.29
2019-05-09T20:57:24.285Z,82.14
2019-05-09T20:59:54.875Z,81.88
2019-05-09T21:02:25.764Z,81.69
2019-05-09T21:04:56.512Z,82.18
2019-05-09T21:07:27.308Z,81.73
2019-05-09T21:09:57.871Z,81.78
2019-05-09T21:12:29.560Z,83.09
2019-05-09T21:15:00.232Z,82.65
2019-05-09T21:17:31.127Z,82.76
2019-05-09T21:20:01.912Z,82.76
2019-05-09T21:22:32.617Z,82.51
2019-05-09T21:25:03.035Z,82.11
2019-05-09T21:27:33.585Z,82.25
2019-05-09T21:30:04.070Z,81.70
2019-05-09T21:32:35.897Z,81.64
2019-05-09T21:35:06.361Z,81.60
2019-05-09T21:37:36.743Z,81.51
2019-05-09T21:40:07.393Z,81.50
2019-05-09T21:42:37.769Z,81.72
2019-05-09T21:45:08.617Z,82.20
2019-05-09T21:47:39.060Z,82.48
2019-05-09T21:50:09.735Z,82.46
2019-05-09T21:52:40.257Z,82.23
2019-05-09T21:55:11.816Z,82.49
2019-05-09T21:57:42.367Z,82.34
2019-05-09T22:00:16.100Z,82.24
2019-05-09T22:02:50.613Z,81.71
2019-05-09T22:05:21.158Z,81.59
2019-05-09T22:07:51.648Z,81.91
2019-05-09T22:10:22.087Z,81.98
2019-05-09T22:12:52.535Z,82.11
2019-05-09T22:15:23.040Z,82.09
2019-05-09T22:17:53.622Z,82.39
2019-05-09T22:20:24.344Z,82.37
2019-05-09T22:22:54.989Z,83.03
2019-05-09T22:25:25.557Z,82.78
2019-05-09T22:27:56.031Z,82.56
2019-05-09T22:30:26.870Z,82.53
2019-05-09T22:32:57.182Z,82.15
2019-05-09T22:35:27.331Z,82.15
2019-05-09T22:37:57.587Z,81.72
2019-05-09T22:40:28.015Z,81.71
2019-05-09T22:42:58.136Z,81.98
2019-05-09T22:45:28.608Z,81.83
2019-05-09T22:47:59.540Z,81.76
2019-05-09T22:50:30.218Z,81.80
2019-05-09T22:53:00.710Z,81.83
2019-05-09T22:55:31.319Z,81.99
2019-05-09T22:58:05.208Z,81.85
2019-05-09T23:00:36.621Z,81.97
2019-05-09T23:03:07.187Z,82.16
2019-05-09T23:05:37.564Z,82.34
2019-05-09T23:08:07.976Z,82.14
2019-05-09T23:10:38.253Z,81.96
2019-05-09T23:13:08.926Z,82.70
2019-05-09T23:15:39.340Z,82.39
2019-05-09T23:18:09.578Z,82.51
2019-05-09T23:21:00.136Z,82.40
2019-05-09T23:23:47.698Z,82.38
2019-05-09T23:26:20.400Z,82.05
2019-05-09T23:28:50.704Z,81.93
2019-05-09T23:31:29.789Z,81.95
2019-05-09T23:34:00.527Z,81.82
2019-05-09T23:36:31.008Z,81.82
2019-05-09T23:39:22.487Z,81.69
2019-05-09T23:41:53.043Z,81.76
2019-05-09T23:44:23.472Z,81.66
2019-05-09T23:46:53.752Z,81.79
2019-05-09T23:49:24.345Z,81.78
2019-05-09T23:51:54.766Z,81.46
2019-05-09T23:54:47.241Z,82.12
2019-05-09T23:57:31.860Z,82.38
